sensor_id;sensor_type;location;lat;lon;timestamp;pressure;altitude;pressure_sealevel;temperature;humidity
7333;BME280;3707;43.618;25.342;2024-02-26T00:01:49;99712.56;;;11.45;100.00
7333;BME280;3707;43.618;25.342;2024-02-26T00:04:17;99704.75;;;11.45;100.00
7333;BME280;3707;43.618;25.342;2024-02-26T00:06:44;99702.16;;;11.37;100.00
7333;BME280;3707;43.618;25.342;2024-02-26T00:09:11;99704.63;;;11.19;100.00
7333;BME280;3707;43.618;25.342;2024-02-26T00:11:38;99710.66;;;11.12;100.00
7333;BME280;3707;43.618;25.342;2024-02-26T00:14:05;99668.03;;;10.80;100.00
7333;BME280;3707;43.618;25.342;2024-02-26T00:16:32;99707.97;;;11.03;100.00
7333;BME280;3707;43.618;25.342;2024-02-26T00:18:59;99704.53;;;11.04;100.00
7333;BME280;3707;43.618;25.342;2024-02-26T00:21:27;99642.88;;;10.65;100.00
7333;BME280;3707;43.618;25.342;2024-02-26T00:23:54;99711.41;;;11.01;100.00
7333;BME280;3707;43.618;25.342;2024-02-26T00:26:21;99700.16;;;11.00;100.00
7333;BME280;3707;43.618;25.342;2024-02-26T00:28:48;99708.84;;;11.04;100.00
7333;BME280;3707;43.618;25.342;2024-02-26T00:31:15;99695.88;;;11.07;100.00
7333;BME280;3707;43.618;25.342;2024-02-26T00:33:41;99677.66;;;10.96;100.00
7333;BME280;3707;43.618;25.342;2024-02-26T00:36:08;99685.50;;;11.02;100.00
7333;BME280;3707;43.618;25.342;2024-02-26T00:38:37;99695.06;;;11.11;100.00
7333;BME280;3707;43.618;25.342;2024-02-26T00:41:04;99702.78;;;11.06;100.00
7333;BME280;3707;43.618;25.342;2024-02-26T00:43:31;99699.31;;;10.98;100.00
7333;BME280;3707;43.618;25.342;2024-02-26T00:45:58;99687.16;;;10.94;100.00
7333;BME280;3707;43.618;25.342;2024-02-26T00:48:25;99690.59;;;10.93;100.00
7333;BME280;3707;43.618;25.342;2024-02-26T00:50:52;99683.63;;;10.86;100.00
7333;BME280;3707;43.618;25.342;2024-02-26T00:53:19;99687.09;;;10.85;100.00
7333;BME280;3707;43.618;25.342;2024-02-26T00:55:47;99656.72;;;10.70;100.00
7333;BME280;3707;43.618;25.342;2024-02-26T00:58:14;99683.69;;;10.92;100.00
7333;BME280;3707;43.618;25.342;2024-02-26T01:00:41;99677.66;;;10.94;100.00
7333;BME280;3707;43.618;25.342;2024-02-26T01:03:08;99684.59;;;10.97;100.00
7333;BME280;3707;43.618;25.342;2024-02-26T01:05:35;99662.88;;;10.83;100.00
7333;BME280;3707;43.618;25.342;2024-02-26T01:08:03;99682.84;;;10.94;100.00
7333;BME280;3707;43.618;25.342;2024-02-26T01:10:30;99681.97;;;10.94;100.00
7333;BME280;3707;43.618;25.342;2024-02-26T01:12:58;99657.66;;;10.78;100.00
7333;BME280;3707;43.618;25.342;2024-02-26T01:15:25;99675.88;;;10.87;100.00
7333;BME280;3707;43.618;25.342;2024-02-26T01:17:52;99645.50;;;10.70;100.00
7333;BME280;3707;43.618;25.342;2024-02-26T01:20:19;99631.63;;;10.65;100.00
7333;BME280;3707;43.618;25.342;2024-02-26T01:22:46;99617.72;;;10.52;100.00
7333;BME280;3707;43.618;25.342;2024-02-26T01:25:13;99656.81;;;10.79;100.00
7333;BME280;3707;43.618;25.342;2024-02-26T01:27:41;99661.16;;;10.85;100.00
7333;BME280;3707;43.618;25.342;2024-02-26T01:30:11;99659.44;;;10.88;100.00
7333;BME280;3707;43.618;25.342;2024-02-26T01:32:38;99668.13;;;10.92;100.00
7333;BME280;3707;43.618;25.342;2024-02-26T01:35:05;99660.25;;;10.81;100.00
7333;BME280;3707;43.618;25.342;2024-02-26T01:37:35;99662.84;;;10.77;100.00
7333;BME280;3707;43.618;25.342;2024-02-26T01:40:02;99674.13;;;10.85;100.00
7333;BME280;3707;43.618;25.342;2024-02-26T01:42:30;99651.56;;;10.72;100.00
7333;BME280;3707;43.618;25.342;2024-02-26T01:44:57;99668.84;;;10.70;100.00
7333;BME280;3707;43.618;25.342;2024-02-26T01:47:26;99664.28;;;10.41;100.00
7333;BME280;3707;43.618;25.342;2024-02-26T01:49:54;99658.84;;;10.17;100.00
7333;BME280;3707;43.618;25.342;2024-02-26T01:52:21;99681.34;;;10.20;100.00
7333;BME280;3707;43.618;25.342;2024-02-26T01:54:48;99664.78;;;10.06;100.00
7333;BME280;3707;43.618;25.342;2024-02-26T01:57:16;99657.78;;;9.99;100.00
7333;BME280;3707;43.618;25.342;2024-02-26T01:59:43;99667.16;;;9.87;100.00
7333;BME280;3707;43.618;25.342;2024-02-26T02:02:11;99665.44;;;9.88;100.00
7333;BME280;3707;43.618;25.342;2024-02-26T02:04:40;99658.63;;;9.99;100.00
7333;BME280;3707;43.618;25.342;2024-02-26T02:07:08;99660.41;;;10.03;100.00
7333;BME280;3707;43.618;25.342;2024-02-26T02:09:35;99662.22;;;10.09;100.00
7333;BME280;3707;43.618;25.342;2024-02-26T02:12:02;99665.59;;;10.06;100.00
7333;BME280;3707;43.618;25.342;2024-02-26T02:14:28;99657.78;;;9.99;100.00
7333;BME280;3707;43.618;25.342;2024-02-26T02:16:55;99662.09;;;9.98;100.00
7333;BME280;3707;43.618;25.342;2024-02-26T02:19:22;99655.13;;;9.95;100.00
7333;BME280;3707;43.618;25.342;2024-02-26T02:21:50;99656.88;;;9.95;100.00
7333;BME280;3707;43.618;25.342;2024-02-26T02:24:17;99661.94;;;9.86;100.00
7333;BME280;3707;43.618;25.342;2024-02-26T02:26:44;99649.00;;;9.86;100.00
7333;BME280;3707;43.618;25.342;2024-02-26T02:29:11;99623.81;;;9.70;100.00
7333;BME280;3707;43.618;25.342;2024-02-26T02:31:39;99636.03;;;9.83;100.00
7333;BME280;3707;43.618;25.342;2024-02-26T02:34:06;99641.22;;;9.83;100.00
7333;BME280;3707;43.618;25.342;2024-02-26T02:36:34;99635.97;;;9.77;100.00
7333;BME280;3707;43.618;25.342;2024-02-26T02:39:02;99657.69;;;9.91;100.00
7333;BME280;3707;43.618;25.342;2024-02-26T02:41:29;99655.97;;;9.90;100.00
7333;BME280;3707;43.618;25.342;2024-02-26T02:43:55;99644.63;;;9.82;100.00
7333;BME280;3707;43.618;25.342;2024-02-26T02:46:22;99661.97;;;9.89;100.00
7333;BME280;3707;43.618;25.342;2024-02-26T02:48:49;99668.72;;;9.75;100.00
7333;BME280;3707;43.618;25.342;2024-02-26T02:51:16;99657.44;;;9.68;100.00
7333;BME280;3707;43.618;25.342;2024-02-26T02:53:43;99675.59;;;9.70;100.00
7333;BME280;3707;43.618;25.342;2024-02-26T02:56:11;99643.44;;;9.53;100.00
7333;BME280;3707;43.618;25.342;2024-02-26T02:58:38;99674.63;;;9.63;100.00
7333;BME280;3707;43.618;25.342;2024-02-26T03:01:04;99661.66;;;9.59;100.00
7333;BME280;3707;43.618;25.342;2024-02-26T03:03:31;99656.47;;;9.59;100.00
7333;BME280;3707;43.618;25.342;2024-02-26T03:05:58;99653.72;;;9.46;100.00
7333;BME280;3707;43.618;25.342;2024-02-26T03:08:25;99676.31;;;9.60;100.00
7333;BME280;3707;43.618;25.342;2024-02-26T03:10:52;99672.81;;;9.55;100.00
7333;BME280;3707;43.618;25.342;2024-02-26T03:13:20;99672.03;;;9.62;100.00
7333;BME280;3707;43.618;25.342;2024-02-26T03:15:47;99677.22;;;9.62;100.00
7333;BME280;3707;43.618;25.342;2024-02-26T03:18:13;99678.06;;;9.64;100.00
7333;BME280;3707;43.618;25.342;2024-02-26T03:20:40;99661.53;;;9.53;100.00
7333;BME280;3707;43.618;25.342;2024-02-26T03:23:07;99676.31;;;9.60;100.00
7333;BME280;3707;43.618;25.342;2024-02-26T03:25:37;99664.13;;;9.51;100.00
7333;BME280;3707;43.618;25.342;2024-02-26T03:28:04;99682.31;;;9.57;100.00
7333;BME280;3707;43.618;25.342;2024-02-26T03:30:33;99680.59;;;9.58;100.00
7333;BME280;3707;43.618;25.342;2024-02-26T03:33:00;99688.19;;;9.45;100.00
7333;BME280;3707;43.618;25.342;2024-02-26T03:35:26;99663.56;;;9.09;100.00
7333;BME280;3707;43.618;25.342;2024-02-26T03:37:53;99514.13;;;8.25;100.00
7333;BME280;3707;43.618;25.342;2024-02-26T03:40:20;99687.06;;;9.24;100.00
7333;BME280;3707;43.618;25.342;2024-02-26T03:42:47;99689.66;;;9.24;100.00
7333;BME280;3707;43.618;25.342;2024-02-26T03:45:14;99669.72;;;9.18;100.00
7333;BME280;3707;43.618;25.342;2024-02-26T03:47:42;99692.47;;;9.40;100.00
7333;BME280;3707;43.618;25.342;2024-02-26T03:50:09;99700.16;;;9.36;100.00
7333;BME280;3707;43.618;25.342;2024-02-26T03:52:36;99694.09;;;9.35;100.00
7333;BME280;3707;43.618;25.342;2024-02-26T03:55:03;99675.97;;;9.32;100.00
7333;BME280;3707;43.618;25.342;2024-02-26T03:57:30;99688.28;;;9.52;100.00
7333;BME280;3707;43.618;25.342;2024-02-26T03:59:57;99680.41;;;9.42;100.00
7333;BME280;3707;43.618;25.342;2024-02-26T04:02:24;99703.03;;;9.56;100.00
7333;BME280;3707;43.618;25.342;2024-02-26T04:04:52;99703.13;;;9.65;100.00
7333;BME280;3707;43.618;25.342;2024-02-26T04:07:19;99698.72;;;10.30;100.00
7333;BME280;3707;43.618;25.342;2024-02-26T04:09:45;99662.16;;;10.07;100.00
7333;BME280;3707;43.618;25.342;2024-02-26T04:12:12;99707.91;;;10.04;100.00
7333;BME280;3707;43.618;25.342;2024-02-26T04:14:39;99689.59;;;9.87;100.00
7333;BME280;3707;43.618;25.342;2024-02-26T04:17:06;99711.94;;;9.79;100.00
7333;BME280;3707;43.618;25.342;2024-02-26T04:19:33;99712.75;;;9.78;100.00
7333;BME280;3707;43.618;25.342;2024-02-26T04:22:01;99712.06;;;9.88;100.00
7333;BME280;3707;43.618;25.342;2024-02-26T04:24:28;99693.00;;;9.83;100.00
7333;BME280;3707;43.618;25.342;2024-02-26T04:26:55;99683.50;;;9.83;100.00
7333;BME280;3707;43.618;25.342;2024-02-26T04:29:21;99606.19;;;9.37;100.00
7333;BME280;3707;43.618;25.342;2024-02-26T04:31:48;99698.31;;;9.95;100.00
7333;BME280;3707;43.618;25.342;2024-02-26T04:34:15;99679.69;;;10.26;100.00
7333;BME280;3707;43.618;25.342;2024-02-26T04:36:42;99684.13;;;10.38;100.00
7333;BME280;3707;43.618;25.342;2024-02-26T04:39:10;99689.28;;;10.36;100.00
7333;BME280;3707;43.618;25.342;2024-02-26T04:41:37;99690.84;;;10.19;100.00
7333;BME280;3707;43.618;25.342;2024-02-26T04:44:04;99694.28;;;10.18;100.00
7333;BME280;3707;43.618;25.342;2024-02-26T04:46:30;99695.09;;;10.14;100.00
7333;BME280;3707;43.618;25.342;2024-02-26T04:48:57;99699.34;;;10.09;100.00
7333;BME280;3707;43.618;25.342;2024-02-26T04:51:24;99712.22;;;10.06;100.00
7333;BME280;3707;43.618;25.342;2024-02-26T04:53:51;99700.06;;;9.98;100.00
7333;BME280;3707;43.618;25.342;2024-02-26T04:56:21;99702.63;;;9.94;100.00
7333;BME280;3707;43.618;25.342;2024-02-26T04:58:47;99702.38;;;9.73;100.00
7333;BME280;3707;43.618;25.342;2024-02-26T05:01:15;99684.94;;;9.60;100.00
7333;BME280;3707;43.618;25.342;2024-02-26T05:03:43;99708.38;;;9.71;100.00
7333;BME280;3707;43.618;25.342;2024-02-26T05:06:09;99681.31;;;9.46;100.00
7333;BME280;3707;43.618;25.342;2024-02-26T05:08:36;99714.31;;;9.62;100.00
7333;BME280;3707;43.618;25.342;2024-02-26T05:11:04;99657.75;;;9.23;100.00
7333;BME280;3707;43.618;25.342;2024-02-26T05:13:32;99701.16;;;9.47;100.00
7333;BME280;3707;43.618;25.342;2024-02-26T05:15:59;99720.25;;;9.57;100.00
7333;BME280;3707;43.618;25.342;2024-02-26T05:18:26;99721.13;;;9.56;100.00
7333;BME280;3707;43.618;25.342;2024-02-26T05:20:52;99718.47;;;9.53;100.00
7333;BME280;3707;43.618;25.342;2024-02-26T05:23:19;99718.47;;;9.53;100.00
7333;BME280;3707;43.618;25.342;2024-02-26T05:25:50;99732.41;;;9.59;100.00
7333;BME280;3707;43.618;25.342;2024-02-26T05:28:36;99728.94;;;9.60;100.00
7333;BME280;3707;43.618;25.342;2024-02-26T05:31:06;99733.91;;;9.43;100.00
7333;BME280;3707;43.618;25.342;2024-02-26T05:33:33;99728.53;;;9.31;100.00
7333;BME280;3707;43.618;25.342;2024-02-26T05:35:59;99654.47;;;8.78;100.00
7333;BME280;3707;43.618;25.342;2024-02-26T05:38:29;99691.88;;;9.00;100.00
7333;BME280;3707;43.618;25.342;2024-02-26T05:40:57;99736.34;;;9.33;100.00
7333;BME280;3707;43.618;25.342;2024-02-26T05:43:24;99744.22;;;9.42;100.00
7333;BME280;3707;43.618;25.342;2024-02-26T05:45:53;99745.22;;;9.53;100.00
7333;BME280;3707;43.618;25.342;2024-02-26T05:48:20;99752.25;;;9.63;100.00
7333;BME280;3707;43.618;25.342;2024-02-26T05:50:46;99663.69;;;9.18;100.00
7333;BME280;3707;43.618;25.342;2024-02-26T05:53:14;99756.63;;;9.66;100.00
7333;BME280;3707;43.618;25.342;2024-02-26T05:55:41;99756.75;;;9.75;100.00
7333;BME280;3707;43.618;25.342;2024-02-26T05:58:07;99756.75;;;9.75;100.00
7333;BME280;3707;43.618;25.342;2024-02-26T06:00:34;99708.25;;;9.62;100.00
7333;BME280;3707;43.618;25.342;2024-02-26T06:03:02;99733.56;;;9.85;100.00
7333;BME280;3707;43.618;25.342;2024-02-26T06:05:29;99764.91;;;10.07;100.00
7333;BME280;3707;43.618;25.342;2024-02-26T06:07:56;99771.81;;;10.06;100.00
7333;BME280;3707;43.618;25.342;2024-02-26T06:10:23;99737.19;;;10.00;100.00
7333;BME280;3707;43.618;25.342;2024-02-26T06:12:49;99756.53;;;10.26;100.00
7333;BME280;3707;43.618;25.342;2024-02-26T06:15:16;99766.22;;;10.43;100.00
7333;BME280;3707;43.618;25.342;2024-02-26T06:17:43;99773.25;;;10.54;100.00
7333;BME280;3707;43.618;25.342;2024-02-26T06:20:11;99784.50;;;10.56;100.00
7333;BME280;3707;43.618;25.342;2024-02-26T06:22:39;99772.38;;;10.52;100.00
7333;BME280;3707;43.618;25.342;2024-02-26T06:25:07;99782.88;;;10.67;100.00
7333;BME280;3707;43.618;25.342;2024-02-26T06:27:34;99789.03;;;10.78;100.00
7333;BME280;3707;43.618;25.342;2024-02-26T06:30:01;99791.47;;;10.61;100.00
7333;BME280;3707;43.618;25.342;2024-02-26T06:32:28;99798.91;;;10.31;100.00
7333;BME280;3707;43.618;25.342;2024-02-26T06:34:55;99750.25;;;10.07;100.00
7333;BME280;3707;43.618;25.342;2024-02-26T06:37:23;99777.22;;;10.24;100.00
7333;BME280;3707;43.618;25.342;2024-02-26T06:39:50;99802.56;;;10.50;100.00
7333;BME280;3707;43.618;25.342;2024-02-26T06:42:17;99799.88;;;10.42;100.00
7333;BME280;3707;43.618;25.342;2024-02-26T06:44:44;99801.50;;;10.31;100.00
7333;BME280;3707;43.618;25.342;2024-02-26T06:47:11;99778.19;;;10.32;100.00
7333;BME280;3707;43.618;25.342;2024-02-26T06:49:38;99803.50;;;10.56;100.00
7333;BME280;3707;43.618;25.342;2024-02-26T06:52:04;99812.84;;;10.40;100.00
7333;BME280;3707;43.618;25.342;2024-02-26T06:54:33;99623.69;;;8.91;100.00
7333;BME280;3707;43.618;25.342;2024-02-26T06:56:59;99817.59;;;10.07;100.00
7333;BME280;3707;43.618;25.342;2024-02-26T06:59:26;99818.72;;;10.27;100.00
7333;BME280;3707;43.618;25.342;2024-02-26T07:01:53;99768.44;;;10.13;100.00
7333;BME280;3707;43.618;25.342;2024-02-26T07:04:20;99676.47;;;9.72;100.00
7333;BME280;3707;43.618;25.342;2024-02-26T07:06:47;99787.56;;;10.20;100.00
7333;BME280;3707;43.618;25.342;2024-02-26T07:09:14;99727.03;;;9.47;100.00
7333;BME280;3707;43.618;25.342;2024-02-26T07:11:43;99825.34;;;10.06;100.00
7333;BME280;3707;43.618;25.342;2024-02-26T07:14:10;99722.22;;;9.73;100.00
7333;BME280;3707;43.618;25.342;2024-02-26T07:16:36;99668.13;;;9.26;100.00
7333;BME280;3707;43.618;25.342;2024-02-26T07:19:03;99725.03;;;9.91;100.00
7333;BME280;3707;43.618;25.342;2024-02-26T07:21:30;99831.31;;;10.71;100.00
7333;BME280;3707;43.618;25.342;2024-02-26T07:23:57;99813.16;;;10.69;100.00
7333;BME280;3707;43.618;25.342;2024-02-26T07:26:24;99823.97;;;11.18;100.00
7333;BME280;3707;43.618;25.342;2024-02-26T07:28:52;99834.63;;;11.51;100.00
7333;BME280;3707;43.618;25.342;2024-02-26T07:31:19;99838.09;;;11.56;100.00
7333;BME280;3707;43.618;25.342;2024-02-26T07:33:46;99829.59;;;11.71;100.00
7333;BME280;3707;43.618;25.342;2024-02-26T07:36:13;99822.75;;;11.85;100.00
7333;BME280;3707;43.618;25.342;2024-02-26T07:38:40;99844.59;;;12.22;100.00
7333;BME280;3707;43.618;25.342;2024-02-26T07:41:06;99848.16;;;12.53;100.00
7333;BME280;3707;43.618;25.342;2024-02-26T07:43:33;99829.16;;;12.64;100.00
7333;BME280;3707;43.618;25.342;2024-02-26T07:46:02;99833.56;;;12.91;100.00
7333;BME280;3707;43.618;25.342;2024-02-26T07:48:29;99831.84;;;13.49;100.00
7333;BME280;3707;43.618;25.342;2024-02-26T07:50:55;99791.81;;;13.88;100.00
7333;BME280;3707;43.618;25.342;2024-02-26T07:53:24;99836.88;;;14.35;100.00
7333;BME280;3707;43.618;25.342;2024-02-26T07:55:51;99823.00;;;14.18;100.00
7333;BME280;3707;43.618;25.342;2024-02-26T07:58:18;99759.66;;;13.97;100.00
7333;BME280;3707;43.618;25.342;2024-02-26T08:00:44;99790.78;;;14.27;100.00
7333;BME280;3707;43.618;25.342;2024-02-26T08:03:13;99832.25;;;14.84;100.00
7333;BME280;3707;43.618;25.342;2024-02-26T08:05:41;99751.59;;;14.50;97.14
7333;BME280;3707;43.618;25.342;2024-02-26T08:08:08;99726.41;;;14.47;95.42
7333;BME280;3707;43.618;25.342;2024-02-26T08:10:35;99731.66;;;14.32;95.12
7333;BME280;3707;43.618;25.342;2024-02-26T08:13:02;99807.81;;;15.01;93.72
7333;BME280;3707;43.618;25.342;2024-02-26T08:15:31;99833.16;;;14.82;94.61
7333;BME280;3707;43.618;25.342;2024-02-26T08:17:59;99833.94;;;14.98;96.05
7333;BME280;3707;43.618;25.342;2024-02-26T08:20:29;99828.41;;;15.37;94.82
7333;BME280;3707;43.618;25.342;2024-02-26T08:22:55;99831.03;;;15.35;92.60
7333;BME280;3707;43.618;25.342;2024-02-26T08:25:22;99828.97;;;14.52;95.03
7333;BME280;3707;43.618;25.342;2024-02-26T08:27:50;99804.03;;;13.80;100.00
7333;BME280;3707;43.618;25.342;2024-02-26T08:30:17;99837.03;;;13.63;100.00
7333;BME280;3707;43.618;25.342;2024-02-26T08:32:45;99820.53;;;13.73;100.00
7333;BME280;3707;43.618;25.342;2024-02-26T08:35:12;99805.84;;;13.45;100.00
7333;BME280;3707;43.618;25.342;2024-02-26T08:37:43;99719.06;;;13.12;100.00
7333;BME280;3707;43.618;25.342;2024-02-26T08:40:11;99842.16;;;14.02;100.00
7333;BME280;3707;43.618;25.342;2024-02-26T08:42:38;99830.84;;;14.15;100.00
7333;BME280;3707;43.618;25.342;2024-02-26T08:45:05;99828.00;;;14.73;100.00
7333;BME280;3707;43.618;25.342;2024-02-26T08:47:32;99823.25;;;15.29;100.00
7333;BME280;3707;43.618;25.342;2024-02-26T08:49:59;99817.25;;;15.18;95.51
7333;BME280;3707;43.618;25.342;2024-02-26T08:52:25;99827.97;;;14.74;96.11
7333;BME280;3707;43.618;25.342;2024-02-26T08:54:54;99804.69;;;14.33;100.00
7333;BME280;3707;43.618;25.342;2024-02-26T08:57:20;99831.63;;;14.42;100.00
7333;BME280;3707;43.618;25.342;2024-02-26T08:59:47;99842.03;;;14.49;99.31
7333;BME280;3707;43.618;25.342;2024-02-26T09:02:14;99836.69;;;14.72;100.00
7333;BME280;3707;43.618;25.342;2024-02-26T09:04:41;99806.50;;;14.16;99.57
7333;BME280;3707;43.618;25.342;2024-02-26T09:07:07;99836.75;;;14.60;98.00
7333;BME280;3707;43.618;25.342;2024-02-26T09:09:34;99794.25;;;14.44;95.22
7333;BME280;3707;43.618;25.342;2024-02-26T09:12:03;99843.47;;;15.00;93.71
7333;BME280;3707;43.618;25.342;2024-02-26T09:14:30;99826.75;;;15.25;93.38
7333;BME280;3707;43.618;25.342;2024-02-26T09:16:57;99835.25;;;15.55;90.14
7333;BME280;3707;43.618;25.342;2024-02-26T09:19:25;99822.22;;;15.52;89.22
7333;BME280;3707;43.618;25.342;2024-02-26T09:21:53;99836.91;;;15.63;87.19
7333;BME280;3707;43.618;25.342;2024-02-26T09:24:22;99838.44;;;15.87;85.91
7333;BME280;3707;43.618;25.342;2024-02-26T09:26:49;99835.88;;;15.79;86.96
7333;BME280;3707;43.618;25.342;2024-02-26T09:29:17;99830.53;;;15.90;86.36
7333;BME280;3707;43.618;25.342;2024-02-26T09:31:44;99808.25;;;15.53;89.93
7333;BME280;3707;43.618;25.342;2024-02-26T09:34:12;99833.78;;;16.10;90.14
7333;BME280;3707;43.618;25.342;2024-02-26T09:36:39;99826.03;;;16.03;88.73
7333;BME280;3707;43.618;25.342;2024-02-26T09:39:06;99821.19;;;16.44;88.60
7333;BME280;3707;43.618;25.342;2024-02-26T09:41:37;99805.50;;;16.43;85.89
7333;BME280;3707;43.618;25.342;2024-02-26T09:44:04;99737.63;;;16.30;85.68
7333;BME280;3707;43.618;25.342;2024-02-26T09:46:33;99810.06;;;16.91;86.95
7333;BME280;3707;43.618;25.342;2024-02-26T09:49:00;99731.34;;;16.44;87.25
7333;BME280;3707;43.618;25.342;2024-02-26T09:51:27;99804.88;;;16.88;87.77
7333;BME280;3707;43.618;25.342;2024-02-26T09:53:54;99800.50;;;16.89;87.25
7333;BME280;3707;43.618;25.342;2024-02-26T09:56:23;99779.44;;;16.95;86.94
7333;BME280;3707;43.618;25.342;2024-02-26T09:58:52;99788.63;;;17.21;86.86
7333;BME280;3707;43.618;25.342;2024-02-26T10:01:20;99781.88;;;17.08;83.74
7333;BME280;3707;43.618;25.342;2024-02-26T10:03:52;99607.13;;;16.12;83.66
7333;BME280;3707;43.618;25.342;2024-02-26T10:06:21;99744.81;;;16.79;82.63
7333;BME280;3707;43.618;25.342;2024-02-26T10:08:48;99779.16;;;17.14;81.28
7333;BME280;3707;43.618;25.342;2024-02-26T10:11:16;99765.88;;;17.23;78.87
7333;BME280;3707;43.618;25.342;2024-02-26T10:13:43;99763.31;;;17.22;79.54
7333;BME280;3707;43.618;25.342;2024-02-26T10:16:10;99760.25;;;17.45;79.14
7333;BME280;3707;43.618;25.342;2024-02-26T10:18:46;99762.56;;;17.64;77.74
7333;BME280;3707;43.618;25.342;2024-02-26T10:21:16;99766.94;;;17.65;76.97
7333;BME280;3707;43.618;25.342;2024-02-26T10:23:43;99758.13;;;17.68;75.63
7333;BME280;3707;43.618;25.342;2024-02-26T10:26:10;99727.91;;;17.47;73.99
7333;BME280;3707;43.618;25.342;2024-02-26T10:28:39;99763.75;;;17.94;73.49
7333;BME280;3707;43.618;25.342;2024-02-26T10:31:06;99730.47;;;17.95;71.70
7333;BME280;3707;43.618;25.342;2024-02-26T10:33:33;99711.88;;;18.05;69.00
7333;BME280;3707;43.618;25.342;2024-02-26T10:36:02;99751.66;;;18.28;67.55
7333;BME280;3707;43.618;25.342;2024-02-26T10:38:31;99746.78;;;18.52;63.91
7333;BME280;3707;43.618;25.342;2024-02-26T10:40:58;99720.28;;;18.22;62.77
7333;BME280;3707;43.618;25.342;2024-02-26T10:43:25;99742.94;;;18.66;60.90
7333;BME280;3707;43.618;25.342;2024-02-26T10:45:52;99711.56;;;18.60;58.24
7333;BME280;3707;43.618;25.342;2024-02-26T10:48:21;99711.69;;;18.91;55.88
7333;BME280;3707;43.618;25.342;2024-02-26T10:50:48;99741.63;;;19.19;55.42
7333;BME280;3707;43.618;25.342;2024-02-26T10:53:19;99723.13;;;19.24;52.58
7333;BME280;3707;43.618;25.342;2024-02-26T10:55:49;99725.34;;;19.39;52.94
7333;BME280;3707;43.618;25.342;2024-02-26T10:58:19;99712.97;;;19.44;51.29
7333;BME280;3707;43.618;25.342;2024-02-26T11:00:46;99728.59;;;19.81;51.67
7333;BME280;3707;43.618;25.342;2024-02-26T11:03:14;99705.75;;;19.83;49.55
7333;BME280;3707;43.618;25.342;2024-02-26T11:05:43;99729.06;;;19.95;49.69
7333;BME280;3707;43.618;25.342;2024-02-26T11:08:11;99734.28;;;19.66;49.72
7333;BME280;3707;43.618;25.342;2024-02-26T11:10:38;99728.25;;;19.62;49.69
7333;BME280;3707;43.618;25.342;2024-02-26T11:13:09;99696.97;;;19.52;49.30
7333;BME280;3707;43.618;25.342;2024-02-26T11:15:39;99718.75;;;19.88;49.30
7333;BME280;3707;43.618;25.342;2024-02-26T11:18:07;99671.00;;;19.72;49.31
7333;BME280;3707;43.618;25.342;2024-02-26T11:20:38;99672.47;;;19.80;48.98
7333;BME280;3707;43.618;25.342;2024-02-26T11:23:06;99724.88;;;20.19;48.29
7333;BME280;3707;43.618;25.342;2024-02-26T11:25:34;99598.53;;;19.62;47.91
7333;BME280;3707;43.618;25.342;2024-02-26T11:28:03;99712.50;;;20.22;46.52
7333;BME280;3707;43.618;25.342;2024-02-26T11:30:34;99713.66;;;20.12;47.00
7333;BME280;3707;43.618;25.342;2024-02-26T11:33:04;99706.59;;;20.14;46.93
7333;BME280;3707;43.618;25.342;2024-02-26T11:35:33;99667.34;;;20.05;46.54
7333;BME280;3707;43.618;25.342;2024-02-26T11:38:00;99697.16;;;20.37;47.00
7333;BME280;3707;43.618;25.342;2024-02-26T11:40:27;99690.72;;;20.45;45.10
7333;BME280;3707;43.618;25.342;2024-02-26T11:42:54;99690.53;;;20.51;45.06
7333;BME280;3707;43.618;25.342;2024-02-26T11:45:53;99678.13;;;20.55;43.32
7333;BME280;3707;43.618;25.342;2024-02-26T11:48:25;99685.38;;;20.48;42.22
7333;BME280;3707;43.618;25.342;2024-02-26T11:50:53;99609.28;;;20.11;41.81
7333;BME280;3707;43.618;25.342;2024-02-26T11:53:21;99676.94;;;20.65;41.98
7333;BME280;3707;43.618;25.342;2024-02-26T11:56:12;99682.59;;;20.53;41.63
7333;BME280;3707;43.618;25.342;2024-02-26T11:58:39;99683.25;;;20.32;41.84
7333;BME280;3707;43.618;25.342;2024-02-26T12:01:40;99681.16;;;20.43;41.48
7333;BME280;3707;43.618;25.342;2024-02-26T12:04:09;99683.66;;;20.47;40.95
7333;BME280;3707;43.618;25.342;2024-02-26T12:07:01;99656.94;;;20.32;40.79
7333;BME280;3707;43.618;25.342;2024-02-26T12:09:35;99684.31;;;20.54;40.89
7333;BME280;3707;43.618;25.342;2024-02-26T12:12:04;99657.50;;;20.69;40.41
7333;BME280;3707;43.618;25.342;2024-02-26T12:14:33;99663.78;;;20.65;39.37
7333;BME280;3707;43.618;25.342;2024-02-26T12:17:03;99670.66;;;20.69;39.49
7333;BME280;3707;43.618;25.342;2024-02-26T12:19:32;99654.25;;;20.61;43.18
7333;BME280;3707;43.618;25.342;2024-02-26T12:22:00;99673.38;;;20.92;44.87
7333;BME280;3707;43.618;25.342;2024-02-26T12:24:27;99671.34;;;20.74;47.31
7333;BME280;3707;43.618;25.342;2024-02-26T12:26:52;99673.69;;;20.57;48.73
7333;BME280;3707;43.618;25.342;2024-02-26T12:29:20;99663.69;;;20.66;48.87
7333;BME280;3707;43.618;25.342;2024-02-26T12:31:47;99661.56;;;20.77;49.02
7333;BME280;3707;43.618;25.342;2024-02-26T12:34:16;99646.34;;;20.61;49.49
7333;BME280;3707;43.618;25.342;2024-02-26T12:36:43;99656.22;;;20.54;50.18
7333;BME280;3707;43.618;25.342;2024-02-26T12:39:09;99665.91;;;20.52;50.52
7333;BME280;3707;43.618;25.342;2024-02-26T12:41:38;99663.25;;;20.54;49.75
7333;BME280;3707;43.618;25.342;2024-02-26T12:44:05;99623.59;;;20.31;48.99
7333;BME280;3707;43.618;25.342;2024-02-26T12:46:34;99638.03;;;20.47;48.38
7333;BME280;3707;43.618;25.342;2024-02-26T12:49:00;99631.91;;;20.72;48.20
7333;BME280;3707;43.618;25.342;2024-02-26T12:51:29;99655.19;;;20.85;48.19
7333;BME280;3707;43.618;25.342;2024-02-26T12:53:56;99653.03;;;20.97;48.01
7333;BME280;3707;43.618;25.342;2024-02-26T12:56:23;99649.81;;;20.88;47.93
7333;BME280;3707;43.618;25.342;2024-02-26T12:58:51;99642.47;;;20.97;47.75
7333;BME280;3707;43.618;25.342;2024-02-26T13:01:21;99663.03;;;21.12;46.89
7333;BME280;3707;43.618;25.342;2024-02-26T13:03:50;99652.66;;;21.08;46.34
7333;BME280;3707;43.618;25.342;2024-02-26T13:06:19;99659.00;;;20.76;46.59
7333;BME280;3707;43.618;25.342;2024-02-26T13:08:49;99638.44;;;20.61;46.46
7333;BME280;3707;43.618;25.342;2024-02-26T13:11:15;99662.75;;;20.69;46.78